createdAt,value
2018-07-09T00:04:19.785Z,15.20
2018-07-09T00:08:54.049Z,15.20
2018-07-09T00:13:29.021Z,15.20
2018-07-09T00:18:03.494Z,15.20
2018-07-09T00:22:37.938Z,15.20
2018-07-09T00:27:12.777Z,15.20
2018-07-09T00:31:47.789Z,15.20
2018-07-09T00:36:22.432Z,15.10
2018-07-09T00:40:57.192Z,14.90
2018-07-09T00:45:31.738Z,14.70
2018-07-09T00:50:07.394Z,14.60
2018-07-09T00:54:42.050Z,14.50
2018-07-09T00:59:16.592Z,14.50
2018-07-09T01:03:51.513Z,14.60
2018-07-09T01:08:25.851Z,14.60
2018-07-09T01:13:00.298Z,14.50
2018-07-09T01:17:34.834Z,14.40
2018-07-09T01:22:09.081Z,14.30
2018-07-09T01:26:43.501Z,14.20
2018-07-09T01:31:18.341Z,14.30
2018-07-09T01:35:53.131Z,14.20
2018-07-09T01:40:27.345Z,14.20
2018-07-09T01:45:02.042Z,14.20
2018-07-09T01:49:36.382Z,14.10
2018-07-09T01:54:10.957Z,14.10
2018-07-09T01:58:45.465Z,14.00
2018-07-09T02:03:20.082Z,14.00
2018-07-09T02:12:28.662Z,13.90
2018-07-09T02:17:02.993Z,13.70
2018-07-09T02:21:37.473Z,13.60
2018-07-09T02:26:11.857Z,13.50
2018-07-09T02:30:47.048Z,13.50
2018-07-09T02:35:21.338Z,13.30
2018-07-09T02:39:55.890Z,13.20
2018-07-09T02:44:30.123Z,13.10
2018-07-09T02:49:04.725Z,13.10
2018-07-09T02:53:39.114Z,13.10
2018-07-09T02:58:14.039Z,13.00
2018-07-09T03:02:48.521Z,13.00
2018-07-09T03:07:22.941Z,13.00
2018-07-09T03:11:57.926Z,13.10
2018-07-09T03:16:32.300Z,13.00
2018-07-09T03:21:06.935Z,12.90
2018-07-09T03:25:41.474Z,12.80
2018-07-09T03:30:15.923Z,12.70
2018-07-09T03:34:50.372Z,12.70
2018-07-09T03:39:25.197Z,12.70
2018-07-09T03:43:59.437Z,12.60
2018-07-09T03:48:33.741Z,12.60
2018-07-09T03:53:08.149Z,12.60
2018-07-09T03:57:42.562Z,12.60
2018-07-09T04:02:16.952Z,12.50
2018-07-09T04:06:51.106Z,12.50
2018-07-09T04:11:25.674Z,12.50
2018-07-09T04:15:59.921Z,12.60
2018-07-09T04:20:34.197Z,12.60
2018-07-09T04:25:08.716Z,12.70
2018-07-09T04:29:42.957Z,12.80
2018-07-09T04:34:17.414Z,13.00
2018-07-09T04:38:51.898Z,13.10
2018-07-09T04:43:26.402Z,13.20
2018-07-09T04:48:00.941Z,13.20
2018-07-09T04:52:35.663Z,13.40
2018-07-09T04:57:10.279Z,13.50
2018-07-09T05:01:44.788Z,13.70
2018-07-09T05:06:20.129Z,13.90
2018-07-09T05:10:54.552Z,14.10
2018-07-09T05:15:29.301Z,14.30
2018-07-09T05:20:03.569Z,14.40
2018-07-09T05:24:38.033Z,14.60
2018-07-09T05:29:12.273Z,14.90
2018-07-09T05:33:46.605Z,15.10
2018-07-09T05:38:22.861Z,15.30
2018-07-09T05:42:58.162Z,15.50
2018-07-09T05:47:32.511Z,15.70
2018-07-09T05:52:07.277Z,15.90
2018-07-09T05:56:41.549Z,16.10
2018-07-09T06:01:16.004Z,16.50
2018-07-09T06:05:50.630Z,16.80
2018-07-09T06:10:25.172Z,17.10
2018-07-09T06:15:00.461Z,17.40
2018-07-09T06:19:35.080Z,17.70
2018-07-09T06:24:09.443Z,18.00
2018-07-09T06:33:17.858Z,18.60
2018-07-09T06:37:52.277Z,18.90
2018-07-09T06:42:26.571Z,19.20
2018-07-09T06:47:01.306Z,19.50
2018-07-09T06:51:36.006Z,19.90
2018-07-09T06:56:10.941Z,20.20
2018-07-09T07:00:45.197Z,20.50
2018-07-09T07:05:19.454Z,20.70
2018-07-09T07:09:53.945Z,21.10
2018-07-09T07:14:29.068Z,21.40
2018-07-09T07:19:03.279Z,21.60
2018-07-09T07:23:37.936Z,21.90
2018-07-09T07:28:12.674Z,22.00
2018-07-09T07:32:47.162Z,22.20
2018-07-09T07:37:21.802Z,22.50
2018-07-09T07:41:56.577Z,22.60
2018-07-09T07:46:31.826Z,23.00
2018-07-09T07:51:06.182Z,23.40
2018-07-09T07:55:40.537Z,23.70
2018-07-09T08:00:14.864Z,23.80
2018-07-09T08:04:49.748Z,23.90
2018-07-09T08:09:24.756Z,24.20
2018-07-09T08:13:59.225Z,24.70
2018-07-09T08:18:34.257Z,25.00
2018-07-09T08:23:08.839Z,25.30
2018-07-09T08:27:43.323Z,25.50
2018-07-09T08:32:17.911Z,25.60
2018-07-09T08:36:52.193Z,26.00
2018-07-09T08:41:26.848Z,26.70
2018-07-09T08:46:01.766Z,28.30
2018-07-09T08:50:36.178Z,29.50
2018-07-09T08:55:11.207Z,30.30
2018-07-09T08:59:45.505Z,30.30
2018-07-09T09:04:19.858Z,31.30
2018-07-09T09:08:54.354Z,32.30
2018-07-09T09:13:28.727Z,33.20
2018-07-09T09:18:03.734Z,33.90
2018-07-09T09:22:38.929Z,33.90
2018-07-09T09:27:13.281Z,34.20
2018-07-09T09:31:47.802Z,34.70
2018-07-09T09:36:22.548Z,34.60
2018-07-09T09:40:56.870Z,34.80
2018-07-09T09:45:31.383Z,34.80
2018-07-09T09:50:05.982Z,35.50
2018-07-09T09:54:40.360Z,36.30
2018-07-09T09:59:14.817Z,36.70
2018-07-09T10:03:49.525Z,37.10
2018-07-09T10:08:23.877Z,36.90
2018-07-09T10:12:58.495Z,36.30
2018-07-09T10:22:06.869Z,37.00
2018-07-09T10:26:41.262Z,36.20
2018-07-09T10:31:15.806Z,35.90
2018-07-09T10:35:50.205Z,35.80
2018-07-09T10:40:24.747Z,36.20
2018-07-09T10:44:59.400Z,35.80
2018-07-09T10:49:33.743Z,35.10
2018-07-09T10:54:08.224Z,35.20
2018-07-09T10:58:42.644Z,35.60
2018-07-09T11:03:17.463Z,37.20
2018-07-09T11:07:52.102Z,38.00
2018-07-09T11:12:26.921Z,37.50
2018-07-09T11:17:01.778Z,36.50
2018-07-09T11:21:36.460Z,36.80
2018-07-09T11:26:10.821Z,37.00
2018-07-09T11:30:45.152Z,36.40
2018-07-09T11:35:19.809Z,36.50
2018-07-09T11:39:55.028Z,37.40
2018-07-09T11:44:30.170Z,37.90
2018-07-09T11:49:05.330Z,38.40
2018-07-09T11:53:39.885Z,38.20
2018-07-09T11:58:14.530Z,37.50
2018-07-09T12:02:49.568Z,37.70
2018-07-09T12:07:24.013Z,37.90
2018-07-09T12:11:58.389Z,37.70
2018-07-09T12:16:32.922Z,37.70
2018-07-09T12:21:07.381Z,37.40
2018-07-09T12:25:41.685Z,37.40
2018-07-09T12:30:16.226Z,37.90
2018-07-09T12:34:50.854Z,38.80
2018-07-09T12:39:25.389Z,37.60
2018-07-09T12:44:00.215Z,36.80
2018-07-09T12:48:34.642Z,36.70
2018-07-09T12:53:09.181Z,37.60
2018-07-09T12:57:43.588Z,37.00
2018-07-09T13:02:18.053Z,35.30
2018-07-09T13:06:52.629Z,35.70
2018-07-09T13:11:26.984Z,36.30
2018-07-09T13:16:01.407Z,37.10
2018-07-09T13:20:35.847Z,37.10
2018-07-09T13:25:10.353Z,36.80
2018-07-09T13:29:44.914Z,36.50
2018-07-09T13:34:19.494Z,35.50
2018-07-09T13:38:54.095Z,34.20
2018-07-09T13:43:28.353Z,33.40
2018-07-09T13:48:03.421Z,32.30
2018-07-09T13:52:37.934Z,32.00
2018-07-09T13:57:12.122Z,31.90
2018-07-09T14:01:46.849Z,31.60
2018-07-09T14:06:21.593Z,30.80
2018-07-09T14:10:56.483Z,30.30
2018-07-09T14:15:30.866Z,30.30
2018-07-09T14:20:47.841Z,30.20
2018-07-09T14:25:22.334Z,30.20
2018-07-09T14:29:56.774Z,30.40
2018-07-09T14:34:31.433Z,30.50
2018-07-09T14:39:06.966Z,30.50
2018-07-09T14:43:41.273Z,30.40
2018-07-09T14:48:15.796Z,30.30
2018-07-09T14:52:50.288Z,29.90
2018-07-09T14:57:24.673Z,29.20
2018-07-09T15:01:59.934Z,29.20
2018-07-09T15:06:34.267Z,29.00
2018-07-09T15:11:10.286Z,28.90
2018-07-09T15:15:44.793Z,29.00
2018-07-09T15:20:20.440Z,28.80
2018-07-09T15:24:54.729Z,28.80
2018-07-09T15:29:29.640Z,28.70
2018-07-09T15:34:07.998Z,28.70
2018-07-09T15:38:42.446Z,28.90
2018-07-09T15:43:21.305Z,29.10
2018-07-09T15:47:55.822Z,29.20
2018-07-09T15:52:30.241Z,29.20
2018-07-09T15:57:04.822Z,29.10
2018-07-09T16:01:40.646Z,28.90
2018-07-09T16:06:15.143Z,28.90
2018-07-09T16:10:49.603Z,28.80
2018-07-09T16:15:23.962Z,28.80
2018-07-09T16:19:58.477Z,28.60
2018-07-09T16:24:32.994Z,28.50
2018-07-09T16:29:07.620Z,28.50
2018-07-09T16:33:42.033Z,28.50
2018-07-09T16:38:16.452Z,28.50
2018-07-09T16:42:50.735Z,28.40
2018-07-09T16:47:25.293Z,28.30
2018-07-09T16:51:59.922Z,28.30
2018-07-09T16:56:34.478Z,28.10
2018-07-09T17:01:08.989Z,27.80
2018-07-09T17:05:43.570Z,27.50
2018-07-09T17:10:17.942Z,27.10
2018-07-09T17:14:52.396Z,27.10
2018-07-09T17:19:26.837Z,27.00
2018-07-09T17:24:02.229Z,27.00
2018-07-09T17:28:36.498Z,26.90
2018-07-09T17:33:10.927Z,26.90
2018-07-09T17:37:45.378Z,26.70
2018-07-09T17:42:19.857Z,26.30
2018-07-09T17:46:54.309Z,26.20
2018-07-09T17:51:29.113Z,26.00
2018-07-09T17:56:03.758Z,25.90
2018-07-09T18:00:38.253Z,25.80
2018-07-09T18:05:14.000Z,25.70
2018-07-09T18:09:48.426Z,25.50
2018-07-09T18:14:23.108Z,25.50
2018-07-09T18:18:58.041Z,25.30
2018-07-09T18:23:32.701Z,25.30
2018-07-09T18:28:08.004Z,25.30
2018-07-09T18:32:42.466Z,25.10
2018-07-09T18:37:16.906Z,25.00
2018-07-09T18:41:51.922Z,24.90
2018-07-09T18:46:27.065Z,24.90
2018-07-09T18:51:01.609Z,24.80
2018-07-09T18:55:35.970Z,24.70
2018-07-09T19:00:10.243Z,24.60
2018-07-09T19:09:19.586Z,24.20
2018-07-09T19:13:54.317Z,24.10
2018-07-09T19:18:39.723Z,24.00
2018-07-09T19:23:13.042Z,23.80
2018-07-09T19:27:46.513Z,23.60
2018-07-09T19:32:19.530Z,23.40
2018-07-09T19:36:52.592Z,23.20
2018-07-09T19:41:25.735Z,23.10
2018-07-09T19:45:59.013Z,22.70
2018-07-09T19:50:32.079Z,22.50
2018-07-09T19:55:05.370Z,22.40
2018-07-09T19:59:40.549Z,22.30
2018-07-09T20:04:15.229Z,22.20
2018-07-09T20:08:53.492Z,22.10
2018-07-09T20:14:30.817Z,22.10
2018-07-09T20:19:03.846Z,22.00
2018-07-09T20:23:37.218Z,21.80
2018-07-09T20:28:11.025Z,21.50
2018-07-09T20:32:44.264Z,21.30
2018-07-09T20:41:52.456Z,21.10
2018-07-09T20:46:25.582Z,21.00
2018-07-09T20:50:59.222Z,20.90
2018-07-09T20:55:32.274Z,20.70
2018-07-09T21:00:05.393Z,20.50
2018-07-09T21:04:38.413Z,20.30
2018-07-09T21:09:11.506Z,20.20
2018-07-09T21:13:44.571Z,20.10
2018-07-09T21:18:17.633Z,20.00
2018-07-09T21:22:50.678Z,19.90
2018-07-09T21:27:23.933Z,19.80
2018-07-09T21:31:56.982Z,19.70
2018-07-09T21:36:30.038Z,19.50
2018-07-09T21:41:03.154Z,19.40
2018-07-09T21:45:36.209Z,19.30
2018-07-09T21:50:09.265Z,19.20
2018-07-09T21:54:42.337Z,19.20
2018-07-09T21:59:15.393Z,19.20
2018-07-09T22:03:48.421Z,19.10
2018-07-09T22:08:21.434Z,19.10
2018-07-09T22:12:54.477Z,18.90
2018-07-09T22:17:27.581Z,18.70
2018-07-09T22:22:00.578Z,18.60
2018-07-09T22:26:33.786Z,18.50
2018-07-09T22:31:09.050Z,18.40
2018-07-09T22:35:43.549Z,18.30
2018-07-09T22:40:18.661Z,18.30
2018-07-09T22:44:53.281Z,18.20
2018-07-09T22:49:27.781Z,18.10
2018-07-09T22:54:02.258Z,18.00
2018-07-09T22:58:37.146Z,18.00
2018-07-09T23:03:14.513Z,17.80
2018-07-09T23:07:48.997Z,17.70
2018-07-09T23:27:10.853Z,17.30
2018-07-09T23:31:43.922Z,17.30
2018-07-09T23:36:17.079Z,17.10
2018-07-09T23:40:50.084Z,17.00
2018-07-09T23:45:23.182Z,16.90
2018-07-09T23:49:56.240Z,16.80
2018-07-09T23:54:29.428Z,16.70
2018-07-09T23:59:40.553Z,16.80
